createdAt,value
2023-04-19T00:01:03.584Z,13.55
2023-04-19T00:03:30.483Z,15.60
2023-04-19T00:05:59.893Z,15.38
2023-04-19T00:08:26.647Z,14.07
2023-04-19T00:10:53.250Z,11.48
2023-04-19T00:13:19.947Z,13.90
2023-04-19T00:15:46.622Z,15.95
2023-04-19T00:18:13.113Z,14.30
2023-04-19T00:20:39.689Z,11.93
2023-04-19T00:23:06.404Z,10.40
2023-04-19T00:25:34.637Z,13.35
2023-04-19T00:28:01.371Z,11.45
2023-04-19T00:30:28.015Z,12.38
2023-04-19T00:32:54.576Z,12.48
2023-04-19T00:35:21.256Z,11.43
2023-04-19T00:37:47.767Z,11.45
2023-04-19T00:40:14.391Z,12.57
2023-04-19T00:42:40.887Z,11.32
2023-04-19T00:45:07.947Z,11.82
2023-04-19T00:47:36.487Z,10.77
2023-04-19T00:50:04.560Z,10.35
2023-04-19T00:52:33.140Z,10.52
2023-04-19T00:55:00.121Z,13.13
2023-04-19T00:57:29.646Z,11.63
2023-04-19T00:59:57.078Z,12.55
2023-04-19T01:02:23.893Z,12.98
2023-04-19T01:04:50.996Z,12.38
2023-04-19T01:07:18.207Z,14.30
2023-04-19T01:09:45.218Z,13.35
2023-04-19T01:12:11.880Z,11.93
2023-04-19T01:14:38.577Z,12.25
2023-04-19T01:17:06.052Z,11.45
2023-04-19T01:19:34.717Z,13.48
2023-04-19T01:22:04.142Z,12.18
2023-04-19T01:24:30.863Z,11.18
2023-04-19T01:26:57.408Z,11.95
2023-04-19T01:29:23.961Z,10.98
2023-04-19T01:31:53.870Z,12.05
2023-04-19T01:34:20.866Z,10.80
2023-04-19T01:36:47.406Z,10.27
2023-04-19T01:39:14.054Z,11.95
2023-04-19T01:41:40.913Z,11.27
2023-04-19T01:44:09.361Z,13.05
2023-04-19T01:46:38.837Z,11.38
2023-04-19T01:49:05.710Z,9.63
2023-04-19T01:51:32.204Z,10.85
2023-04-19T01:54:01.607Z,10.70
2023-04-19T01:56:28.174Z,9.60
2023-04-19T01:58:54.745Z,11.23
2023-04-19T02:01:21.403Z,12.07
2023-04-19T02:03:48.295Z,10.32
2023-04-19T02:06:15.050Z,12.13
2023-04-19T02:08:42.781Z,9.70
2023-04-19T02:11:10.474Z,9.65
2023-04-19T02:13:37.235Z,10.20
2023-04-19T02:16:06.894Z,10.00
2023-04-19T02:18:33.580Z,10.77
2023-04-19T02:21:00.240Z,8.95
2023-04-19T02:23:26.912Z,12.10
2023-04-19T02:25:53.644Z,12.13
2023-04-19T02:28:20.297Z,9.60
2023-04-19T02:30:46.845Z,9.40
2023-04-19T02:33:13.620Z,11.90
2023-04-19T02:35:40.187Z,12.07
2023-04-19T02:38:06.687Z,10.70
2023-04-19T02:40:33.305Z,8.90
2023-04-19T02:42:59.883Z,10.50
2023-04-19T02:45:26.356Z,9.18
2023-04-19T02:47:54.584Z,10.88
2023-04-19T02:50:21.510Z,8.43
2023-04-19T02:52:50.215Z,8.95
2023-04-19T02:55:17.464Z,8.90
2023-04-19T02:57:46.483Z,8.40
2023-04-19T03:00:13.897Z,9.32
2023-04-19T03:02:45.908Z,9.63
2023-04-19T03:05:12.629Z,8.25
2023-04-19T03:07:39.195Z,8.77
2023-04-19T03:10:06.654Z,12.35
2023-04-19T03:12:33.141Z,9.93
2023-04-19T03:14:59.675Z,8.10
2023-04-19T03:17:26.684Z,7.72
2023-04-19T03:19:54.002Z,8.57
2023-04-19T03:22:20.603Z,10.85
2023-04-19T03:24:47.402Z,13.55
2023-04-19T03:27:21.777Z,8.20
2023-04-19T03:29:53.620Z,9.80
2023-04-19T03:32:20.338Z,11.77
2023-04-19T03:34:47.092Z,8.13
2023-04-19T03:37:15.700Z,8.50
2023-04-19T03:39:42.357Z,9.10
2023-04-19T03:42:13.990Z,10.63
2023-04-19T03:44:55.873Z,8.23
2023-04-19T03:47:24.812Z,10.55
2023-04-19T03:49:55.258Z,8.38
2023-04-19T03:52:21.821Z,8.20
2023-04-19T03:54:48.351Z,10.45
2023-04-19T03:57:26.063Z,9.80
2023-04-19T03:59:53.417Z,8.32
2023-04-19T04:02:20.220Z,9.50
2023-04-19T04:04:46.999Z,9.73
2023-04-19T04:07:13.723Z,7.88
2023-04-19T04:09:40.235Z,7.35
2023-04-19T04:12:06.819Z,8.93
2023-04-19T04:14:33.454Z,7.78
2023-04-19T04:17:00.516Z,9.07
2023-04-19T04:19:27.035Z,10.88
2023-04-19T04:21:54.143Z,8.73
2023-04-19T04:24:22.298Z,8.75
2023-04-19T04:27:20.129Z,8.57
2023-04-19T04:29:49.458Z,8.05
2023-04-19T04:32:18.124Z,8.52
2023-04-19T04:34:44.750Z,7.75
2023-04-19T04:37:17.935Z,9.57
2023-04-19T04:39:44.724Z,11.77
2023-04-19T04:42:12.164Z,8.70
2023-04-19T04:44:39.072Z,9.15
2023-04-19T04:47:07.328Z,9.00
2023-04-19T04:49:39.943Z,11.30
2023-04-19T04:52:08.636Z,9.50
2023-04-19T04:54:42.753Z,11.35
2023-04-19T04:57:19.742Z,8.57
2023-04-19T04:59:48.124Z,10.63
2023-04-19T05:02:17.166Z,12.82
2023-04-19T05:04:43.954Z,17.55
2023-04-19T05:07:10.968Z,9.30
2023-04-19T05:09:37.902Z,7.53
2023-04-19T05:12:04.951Z,10.45
2023-04-19T05:14:31.550Z,7.35
2023-04-19T05:16:58.129Z,8.90
2023-04-19T05:19:24.684Z,9.68
2023-04-19T05:21:57.227Z,9.27
2023-04-19T05:24:23.806Z,8.90
2023-04-19T05:26:51.438Z,8.32
2023-04-19T05:29:18.290Z,10.38
2023-04-19T05:31:50.141Z,7.78
2023-04-19T05:34:22.307Z,10.52
2023-04-19T05:36:51.938Z,12.40
2023-04-19T05:39:18.473Z,9.77
2023-04-19T05:41:44.976Z,11.23
2023-04-19T05:44:11.488Z,7.63
2023-04-19T05:46:38.261Z,8.98
2023-04-19T05:49:06.792Z,8.68
2023-04-19T05:51:51.682Z,9.77
2023-04-19T05:54:36.673Z,9.57
2023-04-19T05:57:04.910Z,10.07
2023-04-19T05:59:31.597Z,9.77
2023-04-19T06:01:58.310Z,10.25
2023-04-19T06:04:25.221Z,9.75
2023-04-19T06:06:52.032Z,10.40
2023-04-19T06:09:18.769Z,10.02
2023-04-19T06:11:50.934Z,25.88
2023-04-19T06:14:18.855Z,10.10
2023-04-19T06:16:46.200Z,9.88
2023-04-19T06:19:12.739Z,9.77
2023-04-19T06:21:39.444Z,10.32
2023-04-19T06:24:06.967Z,9.77
2023-04-19T06:26:33.753Z,11.05
2023-04-19T06:29:00.413Z,13.20
2023-04-19T06:31:26.970Z,10.93
2023-04-19T06:33:53.612Z,11.48
2023-04-19T06:36:20.320Z,10.63
2023-04-19T06:38:46.782Z,9.73
2023-04-19T06:41:13.411Z,11.13
2023-04-19T06:43:40.881Z,11.60
2023-04-19T06:46:07.622Z,11.25
2023-04-19T06:48:34.845Z,12.45
2023-04-19T06:51:01.569Z,10.57
2023-04-19T06:53:28.350Z,8.90
2023-04-19T06:56:01.339Z,12.48
2023-04-19T06:58:28.775Z,11.40
2023-04-19T07:00:55.681Z,12.65
2023-04-19T07:03:22.490Z,8.95
2023-04-19T07:05:49.381Z,10.15
2023-04-19T07:08:16.064Z,10.77
2023-04-19T07:10:43.838Z,10.80
2023-04-19T07:13:13.464Z,10.93
2023-04-19T07:15:40.241Z,12.25
2023-04-19T07:18:07.241Z,10.95
2023-04-19T07:20:34.242Z,11.38
2023-04-19T07:23:00.890Z,12.60
2023-04-19T07:25:27.821Z,10.77
2023-04-19T07:27:54.879Z,11.63
2023-04-19T07:30:21.612Z,10.55
2023-04-19T07:32:48.501Z,13.20
2023-04-19T07:35:15.231Z,10.77
2023-04-19T07:37:42.168Z,12.93
2023-04-19T07:40:09.288Z,13.88
2023-04-19T07:42:35.793Z,10.32
2023-04-19T07:45:02.400Z,11.30
2023-04-19T07:47:28.918Z,10.18
2023-04-19T07:49:56.012Z,10.65
2023-04-19T07:52:22.505Z,12.20
2023-04-19T07:54:49.028Z,10.38
2023-04-19T07:57:15.546Z,10.65
2023-04-19T07:59:42.016Z,11.32
2023-04-19T08:02:08.786Z,10.98
2023-04-19T08:04:35.594Z,10.90
2023-04-19T08:07:04.107Z,11.82
2023-04-19T08:09:30.945Z,10.70
2023-04-19T08:11:57.711Z,13.35
2023-04-19T08:14:37.583Z,11.55
2023-04-19T08:17:25.669Z,12.80
2023-04-19T08:19:53.666Z,10.93
2023-04-19T08:22:21.166Z,12.25
2023-04-19T08:24:50.066Z,11.32
2023-04-19T08:27:16.559Z,10.45
2023-04-19T08:29:43.399Z,12.70
2023-04-19T08:32:11.240Z,15.18
2023-04-19T08:34:39.189Z,13.02
2023-04-19T08:37:07.252Z,11.95
2023-04-19T08:39:35.056Z,10.40
2023-04-19T08:42:13.415Z,13.48
2023-04-19T08:45:09.389Z,13.45
2023-04-19T08:47:51.919Z,13.30
2023-04-19T08:50:32.032Z,12.05
2023-04-19T08:53:12.223Z,13.20
2023-04-19T08:56:06.888Z,16.90
2023-04-19T09:01:05.990Z,16.02
2023-04-19T09:03:40.789Z,16.83
2023-04-19T09:06:14.483Z,14.98
2023-04-19T09:08:41.836Z,16.63
2023-04-19T09:11:09.196Z,14.70
2023-04-19T09:13:38.372Z,17.27
2023-04-19T09:16:05.845Z,15.13
2023-04-19T09:18:34.445Z,14.25
2023-04-19T09:21:04.624Z,13.75
2023-04-19T09:23:31.084Z,11.88
2023-04-19T09:28:31.858Z,15.32
2023-04-19T09:31:10.725Z,13.35
2023-04-19T09:33:45.667Z,11.82
2023-04-19T09:36:27.856Z,13.88
2023-04-19T09:38:54.733Z,10.98
2023-04-19T09:41:21.499Z,11.95
2023-04-19T09:46:29.919Z,11.45
2023-04-19T09:49:25.262Z,12.25
2023-04-19T09:52:05.228Z,10.57
2023-04-19T09:54:32.649Z,13.52
2023-04-19T09:57:01.715Z,14.52
2023-04-19T09:59:28.355Z,11.27
2023-04-19T10:01:56.482Z,10.77
2023-04-19T10:04:36.306Z,11.07
2023-04-19T10:07:29.199Z,11.25
2023-04-19T10:10:05.039Z,12.07
2023-04-19T10:13:07.008Z,11.20
2023-04-19T10:15:33.907Z,13.35
2023-04-19T10:18:09.974Z,12.63
2023-04-19T10:20:42.039Z,9.82
2023-04-19T10:23:09.327Z,12.05
2023-04-19T10:25:37.825Z,12.45
2023-04-19T10:28:04.505Z,11.77
2023-04-19T10:30:31.141Z,10.02
2023-04-19T10:33:00.292Z,9.93
2023-04-19T10:35:33.643Z,10.48
2023-04-19T10:38:07.009Z,9.13
2023-04-19T10:40:52.321Z,11.13
2023-04-19T10:43:20.039Z,12.90
2023-04-19T10:45:47.534Z,9.50
2023-04-19T10:48:35.587Z,11.60
2023-04-19T10:51:16.038Z,12.85
2023-04-19T10:53:47.402Z,12.45
2023-04-19T10:56:14.740Z,11.27
2023-04-19T10:59:00.392Z,9.43
2023-04-19T11:01:46.504Z,9.63
2023-04-19T11:04:23.441Z,14.05
2023-04-19T11:06:53.114Z,13.93
2023-04-19T11:09:26.887Z,9.30
2023-04-19T11:11:58.453Z,9.10
2023-04-19T11:14:25.350Z,9.82
2023-04-19T11:16:51.897Z,8.07
2023-04-19T11:19:19.449Z,10.18
2023-04-19T11:21:47.154Z,8.73
2023-04-19T11:24:16.058Z,8.68
2023-04-19T11:26:44.119Z,8.88
2023-04-19T11:29:10.878Z,7.03
2023-04-19T11:31:37.987Z,6.95
2023-04-19T11:34:04.900Z,9.35
2023-04-19T11:36:32.300Z,7.07
2023-04-19T11:38:58.782Z,7.28
2023-04-19T11:41:25.260Z,5.93
2023-04-19T11:43:52.010Z,6.82
2023-04-19T11:46:18.559Z,6.28
2023-04-19T11:48:52.898Z,7.15
2023-04-19T11:51:19.620Z,6.15
2023-04-19T11:53:46.428Z,7.55
2023-04-19T11:56:15.125Z,6.95
2023-04-19T11:58:44.951Z,9.85
2023-04-19T12:01:13.372Z,8.23
2023-04-19T12:03:44.806Z,5.90
2023-04-19T12:06:36.496Z,8.13
2023-04-19T12:09:08.734Z,6.78
2023-04-19T12:11:50.089Z,9.73
2023-04-19T12:14:22.171Z,10.55
2023-04-19T12:17:06.307Z,7.20
2023-04-19T12:19:44.658Z,8.70
2023-04-19T12:22:16.440Z,8.95
2023-04-19T12:24:43.511Z,6.88
2023-04-19T12:27:10.795Z,8.38
2023-04-19T12:29:38.225Z,8.30
2023-04-19T12:32:05.619Z,6.53
2023-04-19T12:34:32.230Z,6.38
2023-04-19T12:36:58.842Z,6.90
2023-04-19T12:39:25.770Z,6.75
2023-04-19T12:41:52.366Z,6.38
2023-04-19T12:44:18.876Z,5.97
2023-04-19T12:46:45.439Z,6.18
2023-04-19T12:49:11.933Z,5.63
2023-04-19T12:51:38.425Z,6.28
2023-04-19T12:54:07.424Z,7.03
2023-04-19T12:56:34.872Z,6.22
2023-04-19T12:59:01.576Z,6.80
2023-04-19T13:01:28.208Z,8.35
2023-04-19T13:03:58.146Z,7.80
2023-04-19T13:06:26.260Z,5.05
2023-04-19T13:08:53.052Z,8.93
2023-04-19T13:11:23.375Z,4.60
2023-04-19T13:13:51.659Z,7.13
2023-04-19T13:16:18.633Z,5.35
2023-04-19T13:18:45.284Z,6.43
2023-04-19T13:21:11.944Z,5.20
2023-04-19T13:23:38.476Z,5.80
2023-04-19T13:26:05.212Z,4.82
2023-04-19T13:28:31.723Z,6.68
2023-04-19T13:30:58.293Z,5.93
2023-04-19T13:33:26.803Z,6.68
2023-04-19T13:35:53.280Z,7.22
2023-04-19T13:38:19.873Z,6.90
2023-04-19T13:40:46.375Z,7.55
2023-04-19T13:43:12.858Z,5.88
2023-04-19T13:45:39.313Z,6.05
2023-04-19T13:48:06.050Z,4.97
2023-04-19T13:50:32.575Z,5.88
2023-04-19T13:52:59.139Z,6.72
2023-04-19T13:55:27.244Z,6.97
2023-04-19T13:57:53.833Z,6.72
2023-04-19T14:00:21.171Z,5.78
2023-04-19T14:02:48.917Z,5.25
2023-04-19T14:05:17.446Z,5.50
2023-04-19T14:07:43.888Z,6.22
2023-04-19T14:10:10.669Z,6.35
2023-04-19T14:12:37.301Z,5.28
2023-04-19T14:15:04.249Z,5.55
2023-04-19T14:17:30.796Z,6.05
2023-04-19T14:19:57.398Z,4.47
2023-04-19T14:22:23.817Z,4.07
2023-04-19T14:24:50.646Z,5.68
2023-04-19T14:27:17.366Z,3.55
2023-04-19T14:29:43.873Z,4.38
2023-04-19T14:32:24.200Z,6.65
2023-04-19T14:34:51.756Z,6.45
2023-04-19T14:37:18.998Z,4.95
2023-04-19T14:39:46.063Z,4.68
2023-04-19T14:42:12.600Z,4.85
2023-04-19T14:44:39.640Z,5.72
2023-04-19T14:47:06.089Z,5.40
2023-04-19T14:49:32.541Z,5.75
2023-04-19T14:51:59.022Z,4.65
2023-04-19T14:54:25.658Z,4.50
2023-04-19T14:56:52.726Z,3.47
2023-04-19T14:59:19.265Z,3.97
2023-04-19T15:01:46.089Z,3.33
2023-04-19T15:04:12.863Z,3.17
2023-04-19T15:06:39.446Z,4.10
2023-04-19T15:09:05.917Z,4.07
2023-04-19T15:11:32.397Z,3.50
2023-04-19T15:13:58.849Z,4.25
2023-04-19T15:16:25.357Z,4.15
2023-04-19T15:18:52.255Z,4.03
2023-04-19T15:21:21.689Z,3.40
2023-04-19T15:23:49.640Z,2.67
2023-04-19T15:26:16.363Z,2.55
2023-04-19T15:28:42.893Z,4.07
2023-04-19T15:31:10.253Z,6.00
2023-04-19T15:33:37.795Z,2.50
2023-04-19T15:36:04.708Z,2.53
2023-04-19T15:38:32.397Z,3.45
2023-04-19T15:41:00.506Z,2.28
2023-04-19T15:43:27.366Z,3.30
2023-04-19T15:45:53.912Z,3.28
2023-04-19T15:48:21.252Z,3.05
2023-04-19T15:50:47.760Z,2.75
2023-04-19T15:53:14.397Z,4.88
2023-04-19T15:55:41.583Z,2.00
2023-04-19T15:58:08.089Z,2.25
2023-04-19T16:00:34.762Z,2.17
2023-04-19T16:03:01.506Z,4.28
2023-04-19T16:05:28.188Z,4.38
2023-04-19T16:08:07.863Z,3.50
2023-04-19T16:10:34.881Z,3.15
2023-04-19T16:13:02.810Z,2.53
2023-04-19T16:15:29.552Z,1.60
2023-04-19T16:17:56.229Z,1.70
2023-04-19T16:20:22.869Z,2.72
2023-04-19T16:22:49.585Z,2.22
2023-04-19T16:25:16.887Z,2.40
2023-04-19T16:27:45.929Z,1.73
2023-04-19T16:30:13.191Z,1.13
2023-04-19T16:32:40.527Z,1.63
2023-04-19T16:35:08.125Z,1.98
2023-04-19T16:37:35.547Z,2.28
2023-04-19T16:40:07.997Z,1.73
2023-04-19T16:42:35.424Z,4.53
2023-04-19T16:45:02.367Z,2.17
2023-04-19T16:47:30.667Z,1.92
2023-04-19T16:49:57.988Z,3.88
2023-04-19T16:52:26.357Z,3.35
2023-04-19T16:54:53.099Z,5.03
2023-04-19T16:57:20.419Z,1.92
2023-04-19T16:59:47.451Z,1.52
2023-04-19T17:02:14.339Z,1.52
2023-04-19T17:04:41.248Z,2.28
2023-04-19T17:07:08.756Z,3.00
2023-04-19T17:09:36.154Z,3.30
2023-04-19T17:12:02.801Z,2.28
2023-04-19T17:14:29.329Z,2.33
2023-04-19T17:16:56.006Z,3.80
2023-04-19T17:19:22.572Z,1.70
2023-04-19T17:21:49.037Z,2.10
2023-04-19T17:24:16.151Z,5.40
2023-04-19T17:26:42.623Z,2.65
2023-04-19T17:29:09.183Z,3.60
2023-04-19T17:31:35.786Z,5.03
2023-04-19T17:34:02.487Z,1.88
2023-04-19T17:36:28.994Z,2.90
2023-04-19T17:38:55.423Z,3.20
2023-04-19T17:41:21.885Z,2.22
2023-04-19T17:43:48.373Z,3.80
2023-04-19T17:46:15.130Z,1.70
2023-04-19T17:48:41.897Z,3.67
2023-04-19T17:51:08.397Z,1.60
2023-04-19T17:53:34.977Z,2.35
2023-04-19T17:56:01.866Z,3.08
2023-04-19T17:58:28.339Z,3.60
2023-04-19T18:00:54.848Z,2.58
2023-04-19T18:03:21.418Z,2.72
2023-04-19T18:05:48.348Z,2.75
2023-04-19T18:08:14.846Z,2.20
2023-04-19T18:10:41.344Z,2.20
2023-04-19T18:13:11.212Z,2.92
2023-04-19T18:15:40.422Z,2.60
2023-04-19T18:18:07.014Z,6.18
2023-04-19T18:20:33.534Z,14.52
2023-04-19T18:23:01.052Z,5.88
2023-04-19T18:25:31.264Z,3.20
2023-04-19T18:27:57.726Z,4.85
2023-04-19T18:30:24.255Z,3.22
2023-04-19T18:32:50.773Z,4.18
2023-04-19T18:35:17.466Z,2.92
2023-04-19T18:37:44.048Z,3.75
2023-04-19T18:40:11.194Z,3.05
2023-04-19T18:42:37.730Z,3.30
2023-04-19T18:45:04.790Z,6.38
2023-04-19T18:47:31.515Z,6.40
2023-04-19T18:50:05.366Z,5.82
2023-04-19T18:52:35.404Z,3.85
2023-04-19T18:55:03.140Z,7.15
2023-04-19T18:57:34.544Z,6.95
2023-04-19T19:00:02.611Z,16.63
2023-04-19T19:02:29.632Z,2.42
2023-04-19T19:05:01.061Z,3.53
2023-04-19T19:10:01.572Z,2.58
2023-04-19T19:12:32.060Z,4.60
2023-04-19T19:14:58.544Z,2.15
2023-04-19T19:17:28.159Z,6.07
2023-04-19T19:19:54.941Z,5.05
2023-04-19T19:22:27.848Z,4.85
2023-04-19T19:27:22.292Z,2.90
2023-04-19T19:29:48.798Z,3.05
2023-04-19T19:32:15.289Z,5.22
2023-04-19T19:34:53.953Z,6.00
2023-04-19T19:37:22.871Z,2.58
2023-04-19T19:39:49.681Z,2.70
2023-04-19T19:42:17.538Z,3.38
2023-04-19T19:44:44.581Z,4.68
2023-04-19T19:47:16.906Z,3.83
2023-04-19T19:50:05.750Z,3.90
2023-04-19T19:52:31.884Z,2.55
2023-04-19T19:54:59.712Z,3.00
2023-04-19T19:59:56.966Z,2.78
2023-04-19T20:02:33.887Z,3.20
2023-04-19T20:05:01.126Z,2.58
2023-04-19T20:07:42.325Z,4.22
2023-04-19T20:10:14.677Z,3.65
2023-04-19T20:12:42.921Z,4.10
2023-04-19T20:15:13.391Z,6.70
2023-04-19T20:17:40.708Z,4.53
2023-04-19T20:20:11.328Z,10.90
2023-04-19T20:22:38.334Z,5.47
2023-04-19T20:25:05.627Z,3.78
2023-04-19T20:27:33.542Z,20.45
2023-04-19T20:30:00.882Z,30.17
2023-04-19T20:32:27.494Z,14.50
2023-04-19T20:34:53.962Z,10.18
2023-04-19T20:37:23.188Z,10.13
2023-04-19T20:39:49.705Z,4.32
2023-04-19T20:42:16.655Z,5.85
2023-04-19T20:44:43.171Z,4.50
2023-04-19T20:47:10.375Z,2.63
2023-04-19T20:49:37.066Z,5.68
2023-04-19T20:52:03.583Z,4.15
2023-04-19T20:54:30.135Z,3.88
2023-04-19T20:57:01.828Z,5.82
2023-04-19T20:59:28.402Z,5.10
2023-04-19T21:01:54.881Z,2.50
2023-04-19T21:04:24.704Z,4.22
2023-04-19T21:06:51.301Z,3.90
2023-04-19T21:09:20.940Z,4.00
2023-04-19T21:11:47.482Z,3.88
2023-04-19T21:14:13.948Z,5.00
2023-04-19T21:16:40.534Z,2.38
2023-04-19T21:19:07.522Z,3.63
2023-04-19T21:21:36.665Z,4.65
2023-04-19T21:24:03.311Z,2.95
2023-04-19T21:26:29.827Z,3.75
2023-04-19T21:28:56.275Z,4.13
2023-04-19T21:31:22.833Z,4.15
2023-04-19T21:33:52.068Z,4.63
2023-04-19T21:36:18.983Z,2.80
2023-04-19T21:38:46.059Z,3.35
2023-04-19T21:41:15.937Z,4.47
2023-04-19T21:43:42.385Z,5.88
2023-04-19T21:46:08.899Z,3.63
2023-04-19T21:48:35.447Z,3.08
2023-04-19T21:51:01.913Z,3.78
2023-04-19T21:53:28.521Z,4.28
2023-04-19T21:55:55.061Z,4.50
2023-04-19T21:58:21.621Z,4.80
2023-04-19T22:00:48.589Z,3.63
2023-04-19T22:03:15.285Z,3.08
2023-04-19T22:05:42.313Z,5.90
2023-04-19T22:08:08.803Z,4.35
2023-04-19T22:10:35.409Z,3.75
2023-04-19T22:13:03.770Z,3.63
2023-04-19T22:15:31.484Z,3.70
2023-04-19T22:17:58.342Z,3.35
2023-04-19T22:20:25.910Z,5.05
2023-04-19T22:22:52.614Z,4.05
2023-04-19T22:25:19.192Z,2.80
2023-04-19T22:27:48.609Z,4.47
2023-04-19T22:30:16.052Z,3.15
2023-04-19T22:32:42.596Z,3.28
2023-04-19T22:35:09.609Z,5.60
2023-04-19T22:37:36.543Z,3.03
2023-04-19T22:40:05.801Z,3.95
2023-04-19T22:42:32.439Z,6.18
2023-04-19T22:44:59.077Z,5.25
2023-04-19T22:47:25.751Z,5.45
2023-04-19T22:49:52.310Z,4.13
2023-04-19T22:52:18.800Z,5.35
2023-04-19T22:54:45.584Z,5.43
2023-04-19T22:57:12.156Z,3.17
2023-04-19T22:59:38.800Z,3.80
2023-04-19T23:02:05.599Z,3.95
2023-04-19T23:04:35.475Z,3.60
2023-04-19T23:07:03.013Z,5.32
2023-04-19T23:09:29.916Z,5.38
2023-04-19T23:11:58.508Z,4.50
2023-04-19T23:14:25.045Z,5.28
2023-04-19T23:16:54.673Z,5.05
2023-04-19T23:19:22.742Z,4.50
2023-04-19T23:21:50.291Z,4.30
2023-04-19T23:24:17.620Z,5.43
2023-04-19T23:26:44.244Z,4.07
2023-04-19T23:29:10.874Z,5.85
2023-04-19T23:31:37.465Z,5.70
2023-04-19T23:34:04.067Z,6.47
2023-04-19T23:36:31.233Z,6.20
2023-04-19T23:38:57.871Z,3.80
2023-04-19T23:41:24.534Z,7.38
2023-04-19T23:43:51.464Z,3.97
2023-04-19T23:46:17.983Z,3.65
2023-04-19T23:48:44.499Z,4.13
2023-04-19T23:51:12.419Z,3.78
2023-04-19T23:53:38.988Z,4.28
2023-04-19T23:56:05.841Z,5.97
2023-04-19T23:58:32.327Z,3.47
